sensor_id;sensor_type;location;lat;lon;timestamp;temperature;humidity
75685;HTU21D;64298;46.050;38.164;2022-10-16T00:00:00;10.09;58.67
75685;HTU21D;64298;46.050;38.164;2022-10-16T00:02:26;10.10;58.74
75685;HTU21D;64298;46.050;38.164;2022-10-16T00:04:52;10.08;58.89
75685;HTU21D;64298;46.050;38.164;2022-10-16T00:07:20;10.10;58.92
75685;HTU21D;64298;46.050;38.164;2022-10-16T00:09:46;10.10;58.83
75685;HTU21D;64298;46.050;38.164;2022-10-16T00:12:12;10.11;58.88
75685;HTU21D;64298;46.050;38.164;2022-10-16T00:14:38;10.11;58.89
75685;HTU21D;64298;46.050;38.164;2022-10-16T00:17:06;10.09;59.15
75685;HTU21D;64298;46.050;38.164;2022-10-16T00:19:32;10.11;59.12
75685;HTU21D;64298;46.050;38.164;2022-10-16T00:21:58;10.11;59.20
75685;HTU21D;64298;46.050;38.164;2022-10-16T00:24:24;10.11;59.29
75685;HTU21D;64298;46.050;38.164;2022-10-16T00:26:50;10.11;59.32
75685;HTU21D;64298;46.050;38.164;2022-10-16T00:29:16;10.11;59.39
75685;HTU21D;64298;46.050;38.164;2022-10-16T00:31:42;10.10;59.36
75685;HTU21D;64298;46.050;38.164;2022-10-16T00:34:08;10.13;59.28
75685;HTU21D;64298;46.050;38.164;2022-10-16T00:36:34;10.13;59.27
75685;HTU21D;64298;46.050;38.164;2022-10-16T00:39:01;10.14;59.36
75685;HTU21D;64298;46.050;38.164;2022-10-16T00:41:28;10.13;59.35
75685;HTU21D;64298;46.050;38.164;2022-10-16T00:43:59;10.11;59.51
75685;HTU21D;64298;46.050;38.164;2022-10-16T00:49:10;10.10;59.68
75685;HTU21D;64298;46.050;38.164;2022-10-16T00:51:43;10.11;59.70
75685;HTU21D;64298;46.050;38.164;2022-10-16T00:54:14;10.12;59.69
75685;HTU21D;64298;46.050;38.164;2022-10-16T00:56:43;10.13;59.69
75685;HTU21D;64298;46.050;38.164;2022-10-16T00:59:22;10.12;59.80
75685;HTU21D;64298;46.050;38.164;2022-10-16T01:01:51;10.11;59.87
75685;HTU21D;64298;46.050;38.164;2022-10-16T01:04:17;10.10;59.94
75685;HTU21D;64298;46.050;38.164;2022-10-16T01:12:44;10.08;60.15
75685;HTU21D;64298;46.050;38.164;2022-10-16T01:15:27;10.01;60.15
75685;HTU21D;64298;46.050;38.164;2022-10-16T01:18:06;9.98;60.37
75685;HTU21D;64298;46.050;38.164;2022-10-16T01:20:39;9.98;60.51
75685;HTU21D;64298;46.050;38.164;2022-10-16T01:23:31;9.98;60.76
75685;HTU21D;64298;46.050;38.164;2022-10-16T01:28:41;9.98;60.76
75685;HTU21D;64298;46.050;38.164;2022-10-16T01:31:09;9.99;60.85
75685;HTU21D;64298;46.050;38.164;2022-10-16T01:33:44;9.98;60.86
75685;HTU21D;64298;46.050;38.164;2022-10-16T01:36:24;9.97;60.94
75685;HTU21D;64298;46.050;38.164;2022-10-16T01:38:51;9.98;61.25
75685;HTU21D;64298;46.050;38.164;2022-10-16T01:41:22;9.94;61.31
75685;HTU21D;64298;46.050;38.164;2022-10-16T01:44:01;9.92;61.34
75685;HTU21D;64298;46.050;38.164;2022-10-16T01:46:28;9.92;61.47
75685;HTU21D;64298;46.050;38.164;2022-10-16T01:48:56;9.92;61.63
75685;HTU21D;64298;46.050;38.164;2022-10-16T01:51:24;9.95;61.52
75685;HTU21D;64298;46.050;38.164;2022-10-16T01:53:53;9.93;61.68
75685;HTU21D;64298;46.050;38.164;2022-10-16T01:56:20;9.93;61.68
75685;HTU21D;64298;46.050;38.164;2022-10-16T01:58:49;9.95;61.86
75685;HTU21D;64298;46.050;38.164;2022-10-16T02:01:19;9.91;61.74
75685;HTU21D;64298;46.050;38.164;2022-10-16T02:03:46;9.88;62.16
75685;HTU21D;64298;46.050;38.164;2022-10-16T02:06:14;9.88;62.24
75685;HTU21D;64298;46.050;38.164;2022-10-16T02:08:40;9.90;62.18
75685;HTU21D;64298;46.050;38.164;2022-10-16T02:11:10;9.91;62.16
75685;HTU21D;64298;46.050;38.164;2022-10-16T02:13:45;9.92;62.10
75685;HTU21D;64298;46.050;38.164;2022-10-16T02:16:14;9.95;62.11
75685;HTU21D;64298;46.050;38.164;2022-10-16T02:18:41;9.94;62.15
75685;HTU21D;64298;46.050;38.164;2022-10-16T02:21:21;9.93;62.21
75685;HTU21D;64298;46.050;38.164;2022-10-16T02:26:49;9.92;62.47
75685;HTU21D;64298;46.050;38.164;2022-10-16T02:29:21;9.92;62.77
75685;HTU21D;64298;46.050;38.164;2022-10-16T02:31:54;9.90;62.83
75685;HTU21D;64298;46.050;38.164;2022-10-16T02:34:22;9.90;62.94
75685;HTU21D;64298;46.050;38.164;2022-10-16T02:36:50;9.88;63.02
75685;HTU21D;64298;46.050;38.164;2022-10-16T02:39:18;9.88;63.10
75685;HTU21D;64298;46.050;38.164;2022-10-16T02:41:45;9.90;63.04
75685;HTU21D;64298;46.050;38.164;2022-10-16T02:44:29;9.89;63.15
75685;HTU21D;64298;46.050;38.164;2022-10-16T02:46:55;9.88;63.09
75685;HTU21D;64298;46.050;38.164;2022-10-16T02:49:21;9.88;63.15
75685;HTU21D;64298;46.050;38.164;2022-10-16T02:51:47;9.89;63.18
75685;HTU21D;64298;46.050;38.164;2022-10-16T02:54:13;9.86;63.23
75685;HTU21D;64298;46.050;38.164;2022-10-16T02:56:39;9.86;63.34
75685;HTU21D;64298;46.050;38.164;2022-10-16T02:59:05;9.86;63.42
75685;HTU21D;64298;46.050;38.164;2022-10-16T03:01:31;9.84;63.66
75685;HTU21D;64298;46.050;38.164;2022-10-16T03:03:57;9.83;63.76
75685;HTU21D;64298;46.050;38.164;2022-10-16T03:06:23;9.84;63.72
75685;HTU21D;64298;46.050;38.164;2022-10-16T03:08:49;9.82;63.73
75685;HTU21D;64298;46.050;38.164;2022-10-16T03:11:15;9.81;63.71
75685;HTU21D;64298;46.050;38.164;2022-10-16T03:13:40;9.82;63.58
75685;HTU21D;64298;46.050;38.164;2022-10-16T03:16:07;9.81;63.62
75685;HTU21D;64298;46.050;38.164;2022-10-16T03:18:32;9.82;63.62
75685;HTU21D;64298;46.050;38.164;2022-10-16T03:21:17;9.80;63.64
75685;HTU21D;64298;46.050;38.164;2022-10-16T03:23:43;9.79;63.71
75685;HTU21D;64298;46.050;38.164;2022-10-16T03:26:09;9.78;63.73
75685;HTU21D;64298;46.050;38.164;2022-10-16T03:28:35;9.74;64.00
75685;HTU21D;64298;46.050;38.164;2022-10-16T03:31:01;9.72;64.09
75685;HTU21D;64298;46.050;38.164;2022-10-16T03:33:27;9.71;64.06
75685;HTU21D;64298;46.050;38.164;2022-10-16T03:35:53;9.71;63.92
75685;HTU21D;64298;46.050;38.164;2022-10-16T03:38:20;9.71;64.05
75685;HTU21D;64298;46.050;38.164;2022-10-16T03:40:47;9.68;64.11
75685;HTU21D;64298;46.050;38.164;2022-10-16T03:43:13;9.65;64.24
75685;HTU21D;64298;46.050;38.164;2022-10-16T03:45:38;9.64;64.19
75685;HTU21D;64298;46.050;38.164;2022-10-16T03:48:05;9.64;64.29
75685;HTU21D;64298;46.050;38.164;2022-10-16T03:50:31;9.64;64.27
75685;HTU21D;64298;46.050;38.164;2022-10-16T03:52:57;9.65;64.31
75685;HTU21D;64298;46.050;38.164;2022-10-16T03:55:23;9.64;64.27
75685;HTU21D;64298;46.050;38.164;2022-10-16T03:57:49;9.63;64.27
75685;HTU21D;64298;46.050;38.164;2022-10-16T04:00:15;9.62;64.40
75685;HTU21D;64298;46.050;38.164;2022-10-16T04:02:41;9.62;64.51
75685;HTU21D;64298;46.050;38.164;2022-10-16T04:05:07;9.62;64.45
75685;HTU21D;64298;46.050;38.164;2022-10-16T04:07:33;9.62;64.48
75685;HTU21D;64298;46.050;38.164;2022-10-16T04:09:59;9.62;64.60
75685;HTU21D;64298;46.050;38.164;2022-10-16T04:12:25;9.62;64.59
75685;HTU21D;64298;46.050;38.164;2022-10-16T04:14:51;9.61;64.76
75685;HTU21D;64298;46.050;38.164;2022-10-16T04:17:17;9.62;64.82
75685;HTU21D;64298;46.050;38.164;2022-10-16T04:19:43;9.63;64.83
75685;HTU21D;64298;46.050;38.164;2022-10-16T04:22:09;9.64;64.83
75685;HTU21D;64298;46.050;38.164;2022-10-16T04:24:35;9.66;64.91
75685;HTU21D;64298;46.050;38.164;2022-10-16T04:27:01;9.68;64.85
75685;HTU21D;64298;46.050;38.164;2022-10-16T04:29:27;9.70;64.95
75685;HTU21D;64298;46.050;38.164;2022-10-16T04:31:53;9.72;65.01
75685;HTU21D;64298;46.050;38.164;2022-10-16T04:34:19;9.74;65.08
75685;HTU21D;64298;46.050;38.164;2022-10-16T04:36:48;9.74;65.06
75685;HTU21D;64298;46.050;38.164;2022-10-16T04:39:18;9.76;65.08
75685;HTU21D;64298;46.050;38.164;2022-10-16T04:41:44;9.76;65.21
75685;HTU21D;64298;46.050;38.164;2022-10-16T04:44:10;9.78;65.17
75685;HTU21D;64298;46.050;38.164;2022-10-16T04:46:36;9.80;65.07
75685;HTU21D;64298;46.050;38.164;2022-10-16T04:49:02;9.81;65.16
75685;HTU21D;64298;46.050;38.164;2022-10-16T04:51:28;9.84;65.38
75685;HTU21D;64298;46.050;38.164;2022-10-16T04:53:54;9.85;65.32
75685;HTU21D;64298;46.050;38.164;2022-10-16T04:56:20;9.88;65.34
75685;HTU21D;64298;46.050;38.164;2022-10-16T04:58:47;9.89;65.43
75685;HTU21D;64298;46.050;38.164;2022-10-16T05:01:13;9.92;65.37
75685;HTU21D;64298;46.050;38.164;2022-10-16T05:03:39;9.96;65.37
75685;HTU21D;64298;46.050;38.164;2022-10-16T05:06:06;9.98;65.43
75685;HTU21D;64298;46.050;38.164;2022-10-16T05:08:32;10.04;65.43
75685;HTU21D;64298;46.050;38.164;2022-10-16T05:10:58;10.06;65.50
75685;HTU21D;64298;46.050;38.164;2022-10-16T05:13:25;10.09;65.41
75685;HTU21D;64298;46.050;38.164;2022-10-16T05:15:50;10.12;65.48
75685;HTU21D;64298;46.050;38.164;2022-10-16T05:18:17;10.19;65.53
75685;HTU21D;64298;46.050;38.164;2022-10-16T05:20:43;10.23;65.50
75685;HTU21D;64298;46.050;38.164;2022-10-16T05:23:09;10.30;65.40
75685;HTU21D;64298;46.050;38.164;2022-10-16T05:25:36;10.36;65.31
75685;HTU21D;64298;46.050;38.164;2022-10-16T05:28:02;10.42;65.34
75685;HTU21D;64298;46.050;38.164;2022-10-16T05:30:28;10.48;65.23
75685;HTU21D;64298;46.050;38.164;2022-10-16T05:32:54;10.54;65.09
75685;HTU21D;64298;46.050;38.164;2022-10-16T05:35:21;10.58;64.99
75685;HTU21D;64298;46.050;38.164;2022-10-16T05:37:47;10.63;64.96
75685;HTU21D;64298;46.050;38.164;2022-10-16T05:40:14;10.67;64.97
75685;HTU21D;64298;46.050;38.164;2022-10-16T05:42:40;10.70;64.92
75685;HTU21D;64298;46.050;38.164;2022-10-16T05:45:09;10.75;64.83
75685;HTU21D;64298;46.050;38.164;2022-10-16T05:47:35;10.80;64.69
75685;HTU21D;64298;46.050;38.164;2022-10-16T05:50:02;10.87;64.76
75685;HTU21D;64298;46.050;38.164;2022-10-16T05:52:29;10.94;64.82
75685;HTU21D;64298;46.050;38.164;2022-10-16T05:54:55;11.00;64.67
75685;HTU21D;64298;46.050;38.164;2022-10-16T05:57:21;11.08;64.51
75685;HTU21D;64298;46.050;38.164;2022-10-16T05:59:47;11.18;64.38
75685;HTU21D;64298;46.050;38.164;2022-10-16T06:02:14;11.26;64.07
75685;HTU21D;64298;46.050;38.164;2022-10-16T06:04:40;11.34;63.89
75685;HTU21D;64298;46.050;38.164;2022-10-16T06:07:06;11.43;63.82
75685;HTU21D;64298;46.050;38.164;2022-10-16T06:09:32;11.48;63.64
75685;HTU21D;64298;46.050;38.164;2022-10-16T06:11:58;11.58;63.47
75685;HTU21D;64298;46.050;38.164;2022-10-16T06:14:24;11.69;63.24
75685;HTU21D;64298;46.050;38.164;2022-10-16T06:16:50;11.87;63.08
75685;HTU21D;64298;46.050;38.164;2022-10-16T06:19:16;11.99;62.78
75685;HTU21D;64298;46.050;38.164;2022-10-16T06:21:43;12.10;62.52
75685;HTU21D;64298;46.050;38.164;2022-10-16T06:24:09;12.17;62.36
75685;HTU21D;64298;46.050;38.164;2022-10-16T06:26:35;12.25;62.18
75685;HTU21D;64298;46.050;38.164;2022-10-16T06:29:02;12.33;62.08
75685;HTU21D;64298;46.050;38.164;2022-10-16T06:31:29;12.45;61.97
75685;HTU21D;64298;46.050;38.164;2022-10-16T06:33:57;12.53;61.77
75685;HTU21D;64298;46.050;38.164;2022-10-16T06:36:24;12.63;61.72
75685;HTU21D;64298;46.050;38.164;2022-10-16T06:38:50;12.71;61.62
75685;HTU21D;64298;46.050;38.164;2022-10-16T06:41:18;12.77;61.57
75685;HTU21D;64298;46.050;38.164;2022-10-16T06:43:45;12.85;61.47
75685;HTU21D;64298;46.050;38.164;2022-10-16T06:46:13;12.94;61.36
75685;HTU21D;64298;46.050;38.164;2022-10-16T06:48:39;13.08;61.25
75685;HTU21D;64298;46.050;38.164;2022-10-16T06:51:09;13.21;61.08
75685;HTU21D;64298;46.050;38.164;2022-10-16T06:53:37;13.31;60.92
75685;HTU21D;64298;46.050;38.164;2022-10-16T06:56:07;13.44;60.80
75685;HTU21D;64298;46.050;38.164;2022-10-16T06:58:33;13.49;60.71
75685;HTU21D;64298;46.050;38.164;2022-10-16T07:00:59;13.50;60.69
75685;HTU21D;64298;46.050;38.164;2022-10-16T07:03:25;13.52;60.65
75685;HTU21D;64298;46.050;38.164;2022-10-16T07:05:51;13.50;60.62
75685;HTU21D;64298;46.050;38.164;2022-10-16T07:08:17;13.52;60.70
75685;HTU21D;64298;46.050;38.164;2022-10-16T07:10:43;13.49;60.74
75685;HTU21D;64298;46.050;38.164;2022-10-16T07:13:08;13.46;60.83
75685;HTU21D;64298;46.050;38.164;2022-10-16T07:15:38;13.48;60.90
75685;HTU21D;64298;46.050;38.164;2022-10-16T07:18:04;13.46;60.93
75685;HTU21D;64298;46.050;38.164;2022-10-16T07:20:30;13.46;60.99
75685;HTU21D;64298;46.050;38.164;2022-10-16T07:22:56;13.47;61.05
75685;HTU21D;64298;46.050;38.164;2022-10-16T07:25:22;13.43;61.00
75685;HTU21D;64298;46.050;38.164;2022-10-16T07:27:48;13.38;61.18
75685;HTU21D;64298;46.050;38.164;2022-10-16T07:30:14;13.37;61.30
75685;HTU21D;64298;46.050;38.164;2022-10-16T07:32:40;13.35;61.38
75685;HTU21D;64298;46.050;38.164;2022-10-16T07:35:06;13.37;61.41
75685;HTU21D;64298;46.050;38.164;2022-10-16T07:37:32;13.38;61.51
75685;HTU21D;64298;46.050;38.164;2022-10-16T07:39:58;13.36;61.57
75685;HTU21D;64298;46.050;38.164;2022-10-16T07:42:24;13.36;61.62
75685;HTU21D;64298;46.050;38.164;2022-10-16T07:44:50;13.39;61.60
75685;HTU21D;64298;46.050;38.164;2022-10-16T07:47:16;13.41;61.61
75685;HTU21D;64298;46.050;38.164;2022-10-16T07:49:42;13.46;61.63
75685;HTU21D;64298;46.050;38.164;2022-10-16T07:52:08;13.50;61.58
75685;HTU21D;64298;46.050;38.164;2022-10-16T07:54:34;13.55;61.52
75685;HTU21D;64298;46.050;38.164;2022-10-16T07:57:00;13.61;61.38
75685;HTU21D;64298;46.050;38.164;2022-10-16T07:59:26;13.60;61.32
75685;HTU21D;64298;46.050;38.164;2022-10-16T08:01:52;13.63;61.36
75685;HTU21D;64298;46.050;38.164;2022-10-16T08:04:18;13.65;61.33
75685;HTU21D;64298;46.050;38.164;2022-10-16T08:06:44;13.65;61.22
75685;HTU21D;64298;46.050;38.164;2022-10-16T08:09:10;13.68;61.12
75685;HTU21D;64298;46.050;38.164;2022-10-16T08:11:36;13.70;61.15
75685;HTU21D;64298;46.050;38.164;2022-10-16T08:14:02;13.75;61.09
75685;HTU21D;64298;46.050;38.164;2022-10-16T08:16:28;13.77;61.04
75685;HTU21D;64298;46.050;38.164;2022-10-16T08:18:54;13.81;60.92
75685;HTU21D;64298;46.050;38.164;2022-10-16T08:21:22;13.83;60.80
75685;HTU21D;64298;46.050;38.164;2022-10-16T08:23:53;13.84;60.71
75685;HTU21D;64298;46.050;38.164;2022-10-16T08:26:19;13.90;60.64
75685;HTU21D;64298;46.050;38.164;2022-10-16T08:28:45;13.91;60.57
75685;HTU21D;64298;46.050;38.164;2022-10-16T08:31:13;13.95;60.45
75685;HTU21D;64298;46.050;38.164;2022-10-16T08:33:41;13.96;60.40
75685;HTU21D;64298;46.050;38.164;2022-10-16T08:36:09;13.97;60.26
75685;HTU21D;64298;46.050;38.164;2022-10-16T08:38:36;13.98;60.23
75685;HTU21D;64298;46.050;38.164;2022-10-16T08:47:13;14.15;59.93
75685;HTU21D;64298;46.050;38.164;2022-10-16T08:49:52;14.19;59.73
75685;HTU21D;64298;46.050;38.164;2022-10-16T08:52:20;14.26;59.60
75685;HTU21D;64298;46.050;38.164;2022-10-16T08:54:50;14.29;59.38
75685;HTU21D;64298;46.050;38.164;2022-10-16T08:57:20;14.37;59.31
75685;HTU21D;64298;46.050;38.164;2022-10-16T08:59:46;14.47;59.01
75685;HTU21D;64298;46.050;38.164;2022-10-16T09:02:38;14.60;58.87
75685;HTU21D;64298;46.050;38.164;2022-10-16T09:13:57;14.89;57.78
75685;HTU21D;64298;46.050;38.164;2022-10-16T09:16:43;15.11;57.53
75685;HTU21D;64298;46.050;38.164;2022-10-16T09:19:20;15.32;57.22
75685;HTU21D;64298;46.050;38.164;2022-10-16T09:21:49;15.48;56.89
75685;HTU21D;64298;46.050;38.164;2022-10-16T09:24:18;15.55;56.23
75685;HTU21D;64298;46.050;38.164;2022-10-16T09:26:45;15.57;56.09
75685;HTU21D;64298;46.050;38.164;2022-10-16T09:29:13;15.59;55.90
75685;HTU21D;64298;46.050;38.164;2022-10-16T09:31:39;15.57;55.28
75685;HTU21D;64298;46.050;38.164;2022-10-16T09:34:06;15.57;55.54
75685;HTU21D;64298;46.050;38.164;2022-10-16T09:36:44;15.68;55.52
75685;HTU21D;64298;46.050;38.164;2022-10-16T09:39:12;15.77;54.91
75685;HTU21D;64298;46.050;38.164;2022-10-16T09:41:41;15.86;54.79
75685;HTU21D;64298;46.050;38.164;2022-10-16T09:44:29;15.89;54.34
75685;HTU21D;64298;46.050;38.164;2022-10-16T09:49:29;15.85;53.81
75685;HTU21D;64298;46.050;38.164;2022-10-16T09:52:24;15.83;54.03
75685;HTU21D;64298;46.050;38.164;2022-10-16T09:54:52;15.86;53.80
75685;HTU21D;64298;46.050;38.164;2022-10-16T09:57:19;15.83;53.35
75685;HTU21D;64298;46.050;38.164;2022-10-16T09:59:54;15.81;53.20
75685;HTU21D;64298;46.050;38.164;2022-10-16T10:02:35;15.82;53.18
75685;HTU21D;64298;46.050;38.164;2022-10-16T10:05:04;15.84;52.97
75685;HTU21D;64298;46.050;38.164;2022-10-16T10:07:35;15.87;53.09
75685;HTU21D;64298;46.050;38.164;2022-10-16T10:10:05;15.91;53.17
75685;HTU21D;64298;46.050;38.164;2022-10-16T10:12:32;15.96;53.18
75685;HTU21D;64298;46.050;38.164;2022-10-16T10:15:06;15.98;53.13
75685;HTU21D;64298;46.050;38.164;2022-10-16T10:17:33;15.96;53.10
75685;HTU21D;64298;46.050;38.164;2022-10-16T10:20:22;15.96;53.19
75685;HTU21D;64298;46.050;38.164;2022-10-16T10:22:47;15.99;53.14
75685;HTU21D;64298;46.050;38.164;2022-10-16T10:30:55;15.97;52.31
75685;HTU21D;64298;46.050;38.164;2022-10-16T10:33:49;15.91;52.36
75685;HTU21D;64298;46.050;38.164;2022-10-16T10:38:59;15.95;52.21
75685;HTU21D;64298;46.050;38.164;2022-10-16T10:46:34;16.32;51.83
75685;HTU21D;64298;46.050;38.164;2022-10-16T10:55:45;16.46;50.34
75685;HTU21D;64298;46.050;38.164;2022-10-16T10:58:43;16.31;50.26
75685;HTU21D;64298;46.050;38.164;2022-10-16T11:01:16;16.25;50.39
75685;HTU21D;64298;46.050;38.164;2022-10-16T11:04:21;16.21;50.63
75685;HTU21D;64298;46.050;38.164;2022-10-16T11:07:09;16.20;50.66
75685;HTU21D;64298;46.050;38.164;2022-10-16T11:09:42;16.22;50.22
75685;HTU21D;64298;46.050;38.164;2022-10-16T11:12:33;16.29;50.23
75685;HTU21D;64298;46.050;38.164;2022-10-16T11:17:42;16.49;49.56
75685;HTU21D;64298;46.050;38.164;2022-10-16T11:23:02;16.70;49.40
75685;HTU21D;64298;46.050;38.164;2022-10-16T11:25:32;16.75;49.01
75685;HTU21D;64298;46.050;38.164;2022-10-16T11:36:40;16.82;49.18
75685;HTU21D;64298;46.050;38.164;2022-10-16T11:39:24;16.80;48.83
75685;HTU21D;64298;46.050;38.164;2022-10-16T11:45:27;16.87;48.82
75685;HTU21D;64298;46.050;38.164;2022-10-16T11:50:54;16.87;48.15
75685;HTU21D;64298;46.050;38.164;2022-10-16T11:55:55;17.00;48.01
75685;HTU21D;64298;46.050;38.164;2022-10-16T12:07:09;16.93;48.05
75685;HTU21D;64298;46.050;38.164;2022-10-16T12:09:39;16.92;48.12
75685;HTU21D;64298;46.050;38.164;2022-10-16T12:12:44;16.94;48.15
75685;HTU21D;64298;46.050;38.164;2022-10-16T12:17:46;17.00;48.05
75685;HTU21D;64298;46.050;38.164;2022-10-16T12:22:48;17.05;47.63
75685;HTU21D;64298;46.050;38.164;2022-10-16T12:25:27;16.99;47.62
75685;HTU21D;64298;46.050;38.164;2022-10-16T12:28:03;16.93;47.86
75685;HTU21D;64298;46.050;38.164;2022-10-16T12:30:32;16.88;48.13
75685;HTU21D;64298;46.050;38.164;2022-10-16T12:33:04;16.82;47.99
75685;HTU21D;64298;46.050;38.164;2022-10-16T12:35:35;16.76;48.12
75685;HTU21D;64298;46.050;38.164;2022-10-16T12:38:19;16.72;48.23
75685;HTU21D;64298;46.050;38.164;2022-10-16T12:40:54;16.70;48.18
75685;HTU21D;64298;46.050;38.164;2022-10-16T12:46:22;16.60;48.37
75685;HTU21D;64298;46.050;38.164;2022-10-16T12:48:49;16.58;48.54
75685;HTU21D;64298;46.050;38.164;2022-10-16T12:51:32;16.57;48.72
75685;HTU21D;64298;46.050;38.164;2022-10-16T12:54:17;16.55;48.60
75685;HTU21D;64298;46.050;38.164;2022-10-16T13:13:40;16.43;49.47
75685;HTU21D;64298;46.050;38.164;2022-10-16T13:24:48;16.31;49.27
75685;HTU21D;64298;46.050;38.164;2022-10-16T13:27:34;16.29;49.20
75685;HTU21D;64298;46.050;38.164;2022-10-16T13:30:28;16.29;49.31
75685;HTU21D;64298;46.050;38.164;2022-10-16T13:33:30;16.28;49.42
75685;HTU21D;64298;46.050;38.164;2022-10-16T13:35:54;16.27;49.41
75685;HTU21D;64298;46.050;38.164;2022-10-16T13:40:54;16.28;49.53
75685;HTU21D;64298;46.050;38.164;2022-10-16T13:43:34;16.27;49.64
75685;HTU21D;64298;46.050;38.164;2022-10-16T13:46:11;16.27;49.70
75685;HTU21D;64298;46.050;38.164;2022-10-16T13:48:38;16.26;49.75
75685;HTU21D;64298;46.050;38.164;2022-10-16T13:51:24;16.27;49.63
75685;HTU21D;64298;46.050;38.164;2022-10-16T13:53:50;16.26;49.41
75685;HTU21D;64298;46.050;38.164;2022-10-16T13:56:19;16.24;49.38
75685;HTU21D;64298;46.050;38.164;2022-10-16T13:58:46;16.25;49.35
75685;HTU21D;64298;46.050;38.164;2022-10-16T14:01:40;16.26;49.47
75685;HTU21D;64298;46.050;38.164;2022-10-16T14:04:09;16.25;49.56
75685;HTU21D;64298;46.050;38.164;2022-10-16T14:06:36;16.22;49.63
75685;HTU21D;64298;46.050;38.164;2022-10-16T14:09:22;16.20;49.67
75685;HTU21D;64298;46.050;38.164;2022-10-16T14:11:58;16.18;49.72
75685;HTU21D;64298;46.050;38.164;2022-10-16T14:14:27;16.15;49.62
75685;HTU21D;64298;46.050;38.164;2022-10-16T14:16:57;16.13;49.21
75685;HTU21D;64298;46.050;38.164;2022-10-16T14:19:27;16.11;49.16
75685;HTU21D;64298;46.050;38.164;2022-10-16T14:21:53;16.08;48.74
75685;HTU21D;64298;46.050;38.164;2022-10-16T14:24:26;16.07;48.69
75685;HTU21D;64298;46.050;38.164;2022-10-16T14:26:57;16.06;48.90
75685;HTU21D;64298;46.050;38.164;2022-10-16T14:29:25;16.03;48.89
75685;HTU21D;64298;46.050;38.164;2022-10-16T14:32:05;16.01;49.06
75685;HTU21D;64298;46.050;38.164;2022-10-16T14:34:32;16.00;49.18
75685;HTU21D;64298;46.050;38.164;2022-10-16T14:36:59;15.98;49.21
75685;HTU21D;64298;46.050;38.164;2022-10-16T14:39:28;15.92;49.37
75685;HTU21D;64298;46.050;38.164;2022-10-16T14:41:56;15.88;49.54
75685;HTU21D;64298;46.050;38.164;2022-10-16T14:44:28;15.85;49.74
75685;HTU21D;64298;46.050;38.164;2022-10-16T14:46:54;15.83;49.96
75685;HTU21D;64298;46.050;38.164;2022-10-16T14:49:22;15.80;50.12
75685;HTU21D;64298;46.050;38.164;2022-10-16T14:52:12;15.75;50.15
75685;HTU21D;64298;46.050;38.164;2022-10-16T14:54:41;15.71;49.98
75685;HTU21D;64298;46.050;38.164;2022-10-16T14:57:17;15.69;49.62
75685;HTU21D;64298;46.050;38.164;2022-10-16T15:00:03;15.69;49.38
75685;HTU21D;64298;46.050;38.164;2022-10-16T15:02:34;15.67;49.37
75685;HTU21D;64298;46.050;38.164;2022-10-16T15:05:30;15.66;49.08
75685;HTU21D;64298;46.050;38.164;2022-10-16T15:07:57;15.66;48.86
75685;HTU21D;64298;46.050;38.164;2022-10-16T15:10:25;15.62;48.76
75685;HTU21D;64298;46.050;38.164;2022-10-16T15:13:12;15.63;48.77
75685;HTU21D;64298;46.050;38.164;2022-10-16T15:15:48;15.60;48.65
75685;HTU21D;64298;46.050;38.164;2022-10-16T15:18:17;15.59;48.41
75685;HTU21D;64298;46.050;38.164;2022-10-16T15:20:50;15.58;48.41
75685;HTU21D;64298;46.050;38.164;2022-10-16T15:23:19;15.55;48.16
75685;HTU21D;64298;46.050;38.164;2022-10-16T15:25:51;15.54;48.14
75685;HTU21D;64298;46.050;38.164;2022-10-16T15:28:19;15.53;48.18
75685;HTU21D;64298;46.050;38.164;2022-10-16T15:30:46;15.52;48.23
75685;HTU21D;64298;46.050;38.164;2022-10-16T15:33:17;15.49;48.34
75685;HTU21D;64298;46.050;38.164;2022-10-16T15:35:47;15.48;48.43
75685;HTU21D;64298;46.050;38.164;2022-10-16T15:38:13;15.46;48.43
75685;HTU21D;64298;46.050;38.164;2022-10-16T15:40:40;15.44;48.35
75685;HTU21D;64298;46.050;38.164;2022-10-16T15:43:07;15.43;48.15
75685;HTU21D;64298;46.050;38.164;2022-10-16T15:45:34;15.40;47.89
75685;HTU21D;64298;46.050;38.164;2022-10-16T15:48:00;15.39;48.08
75685;HTU21D;64298;46.050;38.164;2022-10-16T15:50:27;15.39;48.31
75685;HTU21D;64298;46.050;38.164;2022-10-16T15:52:53;15.36;48.56
75685;HTU21D;64298;46.050;38.164;2022-10-16T15:55:19;15.32;48.76
75685;HTU21D;64298;46.050;38.164;2022-10-16T15:57:45;15.29;48.87
75685;HTU21D;64298;46.050;38.164;2022-10-16T16:00:14;15.23;49.00
75685;HTU21D;64298;46.050;38.164;2022-10-16T16:02:41;15.18;49.10
75685;HTU21D;64298;46.050;38.164;2022-10-16T16:05:09;15.14;49.21
75685;HTU21D;64298;46.050;38.164;2022-10-16T16:07:37;15.09;49.38
75685;HTU21D;64298;46.050;38.164;2022-10-16T16:10:06;15.04;49.44
75685;HTU21D;64298;46.050;38.164;2022-10-16T16:12:33;15.02;49.47
75685;HTU21D;64298;46.050;38.164;2022-10-16T16:14:59;14.98;49.56
75685;HTU21D;64298;46.050;38.164;2022-10-16T16:17:25;14.96;49.58
75685;HTU21D;64298;46.050;38.164;2022-10-16T16:20:04;14.93;49.63
75685;HTU21D;64298;46.050;38.164;2022-10-16T16:22:30;14.91;49.54
75685;HTU21D;64298;46.050;38.164;2022-10-16T16:24:56;14.86;49.52
75685;HTU21D;64298;46.050;38.164;2022-10-16T16:27:22;14.83;49.47
75685;HTU21D;64298;46.050;38.164;2022-10-16T16:29:50;14.79;49.53
75685;HTU21D;64298;46.050;38.164;2022-10-16T16:32:16;14.78;49.53
75685;HTU21D;64298;46.050;38.164;2022-10-16T16:34:42;14.75;49.45
75685;HTU21D;64298;46.050;38.164;2022-10-16T16:37:08;14.72;49.35
75685;HTU21D;64298;46.050;38.164;2022-10-16T16:39:34;14.69;49.27
75685;HTU21D;64298;46.050;38.164;2022-10-16T16:42:00;14.66;49.35
75685;HTU21D;64298;46.050;38.164;2022-10-16T16:44:29;14.63;49.40
75685;HTU21D;64298;46.050;38.164;2022-10-16T16:46:55;14.63;49.44
75685;HTU21D;64298;46.050;38.164;2022-10-16T16:49:21;14.59;49.50
75685;HTU21D;64298;46.050;38.164;2022-10-16T16:51:47;14.56;49.48
75685;HTU21D;64298;46.050;38.164;2022-10-16T16:54:13;14.55;49.48
75685;HTU21D;64298;46.050;38.164;2022-10-16T16:56:39;14.55;49.47
75685;HTU21D;64298;46.050;38.164;2022-10-16T16:59:18;14.52;49.53
75685;HTU21D;64298;46.050;38.164;2022-10-16T17:01:46;14.51;49.37
75685;HTU21D;64298;46.050;38.164;2022-10-16T17:04:12;14.49;49.36
75685;HTU21D;64298;46.050;38.164;2022-10-16T17:06:41;14.48;49.37
75685;HTU21D;64298;46.050;38.164;2022-10-16T17:09:07;14.47;49.37
75685;HTU21D;64298;46.050;38.164;2022-10-16T17:11:35;14.43;49.36
75685;HTU21D;64298;46.050;38.164;2022-10-16T17:14:02;14.42;49.33
75685;HTU21D;64298;46.050;38.164;2022-10-16T17:16:32;14.40;49.21
75685;HTU21D;64298;46.050;38.164;2022-10-16T17:19:03;14.39;49.21